sensor_id;sensor_type;location;lat;lon;timestamp;P1;durP1;ratioP1;P2;durP2;ratioP2
14754;SDS011;7469;50.906;6.952;2023-01-26T00:02:15;44.13;;;18.07;;
14754;SDS011;7469;50.906;6.952;2023-01-26T00:04:45;42.50;;;18.35;;
14754;SDS011;7469;50.906;6.952;2023-01-26T00:07:13;44.85;;;18.15;;
14754;SDS011;7469;50.906;6.952;2023-01-26T00:09:41;43.58;;;19.30;;
14754;SDS011;7469;50.906;6.952;2023-01-26T00:12:09;41.92;;;18.05;;
14754;SDS011;7469;50.906;6.952;2023-01-26T00:14:37;46.00;;;18.75;;
14754;SDS011;7469;50.906;6.952;2023-01-26T00:17:18;45.58;;;18.98;;
14754;SDS011;7469;50.906;6.952;2023-01-26T00:19:54;42.97;;;18.55;;
14754;SDS011;7469;50.906;6.952;2023-01-26T00:22:23;40.92;;;19.17;;
14754;SDS011;7469;50.906;6.952;2023-01-26T00:24:52;49.75;;;19.88;;
14754;SDS011;7469;50.906;6.952;2023-01-26T00:27:20;52.30;;;20.48;;
14754;SDS011;7469;50.906;6.952;2023-01-26T00:29:48;53.72;;;19.92;;
14754;SDS011;7469;50.906;6.952;2023-01-26T00:32:16;55.37;;;20.17;;
14754;SDS011;7469;50.906;6.952;2023-01-26T00:34:44;52.70;;;19.90;;
14754;SDS011;7469;50.906;6.952;2023-01-26T00:37:13;51.35;;;19.95;;
14754;SDS011;7469;50.906;6.952;2023-01-26T00:39:41;47.78;;;19.05;;
14754;SDS011;7469;50.906;6.952;2023-01-26T00:42:09;52.72;;;19.75;;
14754;SDS011;7469;50.906;6.952;2023-01-26T00:44:39;43.60;;;18.23;;
14754;SDS011;7469;50.906;6.952;2023-01-26T00:47:09;46.08;;;18.85;;
14754;SDS011;7469;50.906;6.952;2023-01-26T00:49:38;47.13;;;18.63;;
14754;SDS011;7469;50.906;6.952;2023-01-26T00:52:06;46.50;;;18.33;;
14754;SDS011;7469;50.906;6.952;2023-01-26T00:54:36;48.33;;;18.33;;
14754;SDS011;7469;50.906;6.952;2023-01-26T00:57:04;45.72;;;18.33;;
14754;SDS011;7469;50.906;6.952;2023-01-26T00:59:32;45.35;;;17.63;;
14754;SDS011;7469;50.906;6.952;2023-01-26T01:02:00;41.97;;;18.85;;
14754;SDS011;7469;50.906;6.952;2023-01-26T01:04:29;46.55;;;19.80;;
14754;SDS011;7469;50.906;6.952;2023-01-26T01:06:57;45.13;;;17.70;;
14754;SDS011;7469;50.906;6.952;2023-01-26T01:09:25;48.03;;;18.65;;
14754;SDS011;7469;50.906;6.952;2023-01-26T01:11:54;45.45;;;18.65;;
14754;SDS011;7469;50.906;6.952;2023-01-26T01:14:22;46.47;;;19.45;;
14754;SDS011;7469;50.906;6.952;2023-01-26T01:16:50;48.85;;;18.60;;
14754;SDS011;7469;50.906;6.952;2023-01-26T01:19:18;50.85;;;20.25;;
14754;SDS011;7469;50.906;6.952;2023-01-26T01:21:46;49.75;;;18.80;;
14754;SDS011;7469;50.906;6.952;2023-01-26T01:24:14;43.17;;;17.60;;
14754;SDS011;7469;50.906;6.952;2023-01-26T01:26:42;48.13;;;20.45;;
14754;SDS011;7469;50.906;6.952;2023-01-26T01:29:12;49.58;;;20.48;;
14754;SDS011;7469;50.906;6.952;2023-01-26T01:31:40;49.15;;;19.83;;
14754;SDS011;7469;50.906;6.952;2023-01-26T01:34:09;48.38;;;19.63;;
14754;SDS011;7469;50.906;6.952;2023-01-26T01:36:37;44.88;;;19.05;;
14754;SDS011;7469;50.906;6.952;2023-01-26T01:39:05;41.63;;;18.53;;
14754;SDS011;7469;50.906;6.952;2023-01-26T01:41:32;44.13;;;18.17;;
14754;SDS011;7469;50.906;6.952;2023-01-26T01:44:15;45.92;;;18.30;;
14754;SDS011;7469;50.906;6.952;2023-01-26T01:46:45;45.65;;;17.63;;
14754;SDS011;7469;50.906;6.952;2023-01-26T01:49:18;41.53;;;17.85;;
14754;SDS011;7469;50.906;6.952;2023-01-26T01:51:50;39.87;;;17.20;;
14754;SDS011;7469;50.906;6.952;2023-01-26T01:54:23;39.63;;;18.48;;
14754;SDS011;7469;50.906;6.952;2023-01-26T01:56:55;38.08;;;17.92;;
14754;SDS011;7469;50.906;6.952;2023-01-26T01:59:28;41.72;;;17.85;;
14754;SDS011;7469;50.906;6.952;2023-01-26T02:01:57;37.05;;;17.02;;
14754;SDS011;7469;50.906;6.952;2023-01-26T02:04:26;40.60;;;17.30;;
14754;SDS011;7469;50.906;6.952;2023-01-26T02:06:55;40.70;;;19.02;;
14754;SDS011;7469;50.906;6.952;2023-01-26T02:09:26;41.97;;;17.58;;
14754;SDS011;7469;50.906;6.952;2023-01-26T02:12:14;42.60;;;17.90;;
14754;SDS011;7469;50.906;6.952;2023-01-26T02:14:47;45.40;;;17.48;;
14754;SDS011;7469;50.906;6.952;2023-01-26T02:17:18;40.40;;;18.00;;
14754;SDS011;7469;50.906;6.952;2023-01-26T02:19:49;42.17;;;18.00;;
14754;SDS011;7469;50.906;6.952;2023-01-26T02:22:27;38.33;;;16.40;;
14754;SDS011;7469;50.906;6.952;2023-01-26T02:25:06;43.35;;;18.02;;
14754;SDS011;7469;50.906;6.952;2023-01-26T02:27:43;46.08;;;19.50;;
14754;SDS011;7469;50.906;6.952;2023-01-26T02:30:11;42.15;;;17.35;;
14754;SDS011;7469;50.906;6.952;2023-01-26T02:32:40;45.50;;;19.13;;
14754;SDS011;7469;50.906;6.952;2023-01-26T02:35:08;42.92;;;18.17;;
14754;SDS011;7469;50.906;6.952;2023-01-26T02:37:36;43.95;;;19.05;;
14754;SDS011;7469;50.906;6.952;2023-01-26T02:40:05;45.90;;;19.52;;
14754;SDS011;7469;50.906;6.952;2023-01-26T02:42:40;41.15;;;17.90;;
14754;SDS011;7469;50.906;6.952;2023-01-26T02:45:11;45.70;;;17.80;;
14754;SDS011;7469;50.906;6.952;2023-01-26T02:47:40;40.80;;;17.80;;
14754;SDS011;7469;50.906;6.952;2023-01-26T02:50:10;38.92;;;17.13;;
14754;SDS011;7469;50.906;6.952;2023-01-26T02:52:38;42.65;;;17.98;;
14754;SDS011;7469;50.906;6.952;2023-01-26T02:55:06;41.78;;;16.83;;
14754;SDS011;7469;50.906;6.952;2023-01-26T02:57:54;48.47;;;18.00;;
14754;SDS011;7469;50.906;6.952;2023-01-26T03:00:25;37.95;;;17.75;;
14754;SDS011;7469;50.906;6.952;2023-01-26T03:02:56;39.42;;;16.70;;
14754;SDS011;7469;50.906;6.952;2023-01-26T03:05:26;42.78;;;17.65;;
14754;SDS011;7469;50.906;6.952;2023-01-26T03:07:54;42.57;;;17.67;;
14754;SDS011;7469;50.906;6.952;2023-01-26T03:10:23;42.13;;;18.15;;
14754;SDS011;7469;50.906;6.952;2023-01-26T03:12:52;43.25;;;17.40;;
14754;SDS011;7469;50.906;6.952;2023-01-26T03:15:20;44.70;;;19.83;;
14754;SDS011;7469;50.906;6.952;2023-01-26T03:18:07;42.95;;;18.13;;
14754;SDS011;7469;50.906;6.952;2023-01-26T03:20:57;39.95;;;17.90;;
14754;SDS011;7469;50.906;6.952;2023-01-26T03:23:43;40.80;;;16.33;;
14754;SDS011;7469;50.906;6.952;2023-01-26T03:26:29;38.28;;;17.05;;
14754;SDS011;7469;50.906;6.952;2023-01-26T03:29:14;39.42;;;17.45;;
14754;SDS011;7469;50.906;6.952;2023-01-26T03:31:42;42.97;;;17.77;;
14754;SDS011;7469;50.906;6.952;2023-01-26T03:34:12;42.58;;;18.27;;
14754;SDS011;7469;50.906;6.952;2023-01-26T03:36:40;41.00;;;17.27;;
14754;SDS011;7469;50.906;6.952;2023-01-26T03:39:08;37.67;;;16.08;;
14754;SDS011;7469;50.906;6.952;2023-01-26T03:41:56;33.88;;;15.85;;
14754;SDS011;7469;50.906;6.952;2023-01-26T03:44:42;31.67;;;15.60;;
14754;SDS011;7469;50.906;6.952;2023-01-26T03:47:27;40.83;;;16.15;;
14754;SDS011;7469;50.906;6.952;2023-01-26T03:50:16;39.47;;;16.15;;
14754;SDS011;7469;50.906;6.952;2023-01-26T03:53:02;36.30;;;16.08;;
14754;SDS011;7469;50.906;6.952;2023-01-26T03:55:55;38.08;;;17.90;;
14754;SDS011;7469;50.906;6.952;2023-01-26T03:58:41;41.05;;;17.67;;
14754;SDS011;7469;50.906;6.952;2023-01-26T04:01:09;40.85;;;18.15;;
14754;SDS011;7469;50.906;6.952;2023-01-26T04:03:43;35.97;;;16.42;;
14754;SDS011;7469;50.906;6.952;2023-01-26T04:06:31;39.10;;;15.57;;
14754;SDS011;7469;50.906;6.952;2023-01-26T04:09:17;44.20;;;18.83;;
14754;SDS011;7469;50.906;6.952;2023-01-26T04:11:46;36.50;;;17.38;;
14754;SDS011;7469;50.906;6.952;2023-01-26T04:14:14;41.08;;;18.73;;
14754;SDS011;7469;50.906;6.952;2023-01-26T04:17:14;43.70;;;17.70;;
14754;SDS011;7469;50.906;6.952;2023-01-26T04:20:00;35.63;;;17.08;;
14754;SDS011;7469;50.906;6.952;2023-01-26T04:22:47;39.00;;;18.00;;
14754;SDS011;7469;50.906;6.952;2023-01-26T04:25:16;39.47;;;18.42;;
14754;SDS011;7469;50.906;6.952;2023-01-26T04:27:45;47.78;;;19.13;;
14754;SDS011;7469;50.906;6.952;2023-01-26T04:30:16;42.92;;;17.48;;
14754;SDS011;7469;50.906;6.952;2023-01-26T04:32:44;44.15;;;19.00;;
14754;SDS011;7469;50.906;6.952;2023-01-26T04:35:12;45.05;;;19.10;;
14754;SDS011;7469;50.906;6.952;2023-01-26T04:37:40;40.90;;;17.73;;
14754;SDS011;7469;50.906;6.952;2023-01-26T04:40:10;38.38;;;17.92;;
14754;SDS011;7469;50.906;6.952;2023-01-26T04:42:39;46.95;;;17.77;;
14754;SDS011;7469;50.906;6.952;2023-01-26T04:45:08;41.47;;;17.52;;
14754;SDS011;7469;50.906;6.952;2023-01-26T04:47:36;43.72;;;18.27;;
14754;SDS011;7469;50.906;6.952;2023-01-26T04:50:05;40.75;;;16.98;;
14754;SDS011;7469;50.906;6.952;2023-01-26T04:52:33;41.47;;;17.10;;
14754;SDS011;7469;50.906;6.952;2023-01-26T04:55:01;38.85;;;17.52;;
14754;SDS011;7469;50.906;6.952;2023-01-26T04:57:30;45.13;;;18.80;;
14754;SDS011;7469;50.906;6.952;2023-01-26T04:59:58;37.55;;;15.85;;
14754;SDS011;7469;50.906;6.952;2023-01-26T05:02:26;36.75;;;16.20;;
14754;SDS011;7469;50.906;6.952;2023-01-26T05:04:54;36.97;;;16.02;;
14754;SDS011;7469;50.906;6.952;2023-01-26T05:07:22;32.35;;;15.55;;
14754;SDS011;7469;50.906;6.952;2023-01-26T05:09:50;39.35;;;16.52;;
14754;SDS011;7469;50.906;6.952;2023-01-26T05:12:18;30.35;;;14.60;;
14754;SDS011;7469;50.906;6.952;2023-01-26T05:15:05;34.80;;;14.77;;
14754;SDS011;7469;50.906;6.952;2023-01-26T05:17:33;33.05;;;14.95;;
14754;SDS011;7469;50.906;6.952;2023-01-26T05:20:05;34.90;;;16.30;;
14754;SDS011;7469;50.906;6.952;2023-01-26T05:22:34;39.08;;;15.63;;
14754;SDS011;7469;50.906;6.952;2023-01-26T05:25:02;33.17;;;15.57;;
14754;SDS011;7469;50.906;6.952;2023-01-26T05:27:31;33.67;;;14.77;;
14754;SDS011;7469;50.906;6.952;2023-01-26T05:29:59;30.23;;;14.55;;
14754;SDS011;7469;50.906;6.952;2023-01-26T05:32:29;34.08;;;15.65;;
14754;SDS011;7469;50.906;6.952;2023-01-26T05:34:57;34.25;;;15.00;;
14754;SDS011;7469;50.906;6.952;2023-01-26T05:37:26;33.50;;;14.68;;
14754;SDS011;7469;50.906;6.952;2023-01-26T05:39:54;37.78;;;14.90;;
14754;SDS011;7469;50.906;6.952;2023-01-26T05:42:22;38.53;;;16.40;;
14754;SDS011;7469;50.906;6.952;2023-01-26T05:44:51;36.95;;;15.88;;
14754;SDS011;7469;50.906;6.952;2023-01-26T05:47:19;37.75;;;15.07;;
14754;SDS011;7469;50.906;6.952;2023-01-26T05:49:49;32.95;;;16.27;;
14754;SDS011;7469;50.906;6.952;2023-01-26T05:52:18;30.27;;;14.70;;
14754;SDS011;7469;50.906;6.952;2023-01-26T05:54:47;28.70;;;13.93;;
14754;SDS011;7469;50.906;6.952;2023-01-26T05:57:16;33.88;;;15.15;;
14754;SDS011;7469;50.906;6.952;2023-01-26T05:59:45;38.38;;;15.05;;
14754;SDS011;7469;50.906;6.952;2023-01-26T06:02:13;31.95;;;13.32;;
14754;SDS011;7469;50.906;6.952;2023-01-26T06:04:41;34.30;;;15.20;;
14754;SDS011;7469;50.906;6.952;2023-01-26T06:07:10;33.25;;;14.88;;
14754;SDS011;7469;50.906;6.952;2023-01-26T06:09:39;26.60;;;13.38;;
14754;SDS011;7469;50.906;6.952;2023-01-26T06:12:10;34.53;;;14.50;;
14754;SDS011;7469;50.906;6.952;2023-01-26T06:14:41;36.65;;;14.77;;
14754;SDS011;7469;50.906;6.952;2023-01-26T06:17:12;29.40;;;13.70;;
14754;SDS011;7469;50.906;6.952;2023-01-26T06:19:41;33.15;;;14.23;;
14754;SDS011;7469;50.906;6.952;2023-01-26T06:22:11;33.80;;;14.30;;
14754;SDS011;7469;50.906;6.952;2023-01-26T06:24:40;31.48;;;14.27;;
14754;SDS011;7469;50.906;6.952;2023-01-26T06:27:10;26.85;;;13.88;;
14754;SDS011;7469;50.906;6.952;2023-01-26T06:29:39;30.33;;;14.25;;
14754;SDS011;7469;50.906;6.952;2023-01-26T06:32:08;28.92;;;13.93;;
14754;SDS011;7469;50.906;6.952;2023-01-26T06:34:37;31.92;;;13.35;;
14754;SDS011;7469;50.906;6.952;2023-01-26T06:37:05;31.98;;;13.63;;
14754;SDS011;7469;50.906;6.952;2023-01-26T06:39:35;28.38;;;13.05;;
14754;SDS011;7469;50.906;6.952;2023-01-26T06:42:03;26.48;;;12.55;;
14754;SDS011;7469;50.906;6.952;2023-01-26T06:44:31;33.80;;;14.55;;
14754;SDS011;7469;50.906;6.952;2023-01-26T06:46:59;29.65;;;13.75;;
14754;SDS011;7469;50.906;6.952;2023-01-26T06:49:27;30.63;;;14.10;;
14754;SDS011;7469;50.906;6.952;2023-01-26T06:51:57;28.85;;;13.73;;
14754;SDS011;7469;50.906;6.952;2023-01-26T06:54:29;31.73;;;14.50;;
14754;SDS011;7469;50.906;6.952;2023-01-26T06:56:58;35.22;;;14.48;;
14754;SDS011;7469;50.906;6.952;2023-01-26T06:59:28;30.10;;;14.05;;
14754;SDS011;7469;50.906;6.952;2023-01-26T07:01:56;25.85;;;13.68;;
14754;SDS011;7469;50.906;6.952;2023-01-26T07:04:24;37.97;;;15.68;;
14754;SDS011;7469;50.906;6.952;2023-01-26T07:06:53;31.25;;;14.75;;
14754;SDS011;7469;50.906;6.952;2023-01-26T07:09:21;30.67;;;14.88;;
14754;SDS011;7469;50.906;6.952;2023-01-26T07:11:49;31.05;;;14.77;;
14754;SDS011;7469;50.906;6.952;2023-01-26T07:14:18;32.25;;;14.43;;
14754;SDS011;7469;50.906;6.952;2023-01-26T07:16:46;31.33;;;14.35;;
14754;SDS011;7469;50.906;6.952;2023-01-26T07:19:14;35.22;;;14.88;;
14754;SDS011;7469;50.906;6.952;2023-01-26T07:21:42;31.95;;;14.75;;
14754;SDS011;7469;50.906;6.952;2023-01-26T07:24:10;32.42;;;14.43;;
14754;SDS011;7469;50.906;6.952;2023-01-26T07:26:38;34.88;;;15.30;;
14754;SDS011;7469;50.906;6.952;2023-01-26T07:29:06;34.40;;;14.65;;
14754;SDS011;7469;50.906;6.952;2023-01-26T07:31:35;31.67;;;14.70;;
14754;SDS011;7469;50.906;6.952;2023-01-26T07:34:03;33.63;;;14.13;;
14754;SDS011;7469;50.906;6.952;2023-01-26T07:36:31;33.25;;;15.38;;
14754;SDS011;7469;50.906;6.952;2023-01-26T07:38:59;32.88;;;14.38;;
14754;SDS011;7469;50.906;6.952;2023-01-26T07:41:27;36.20;;;15.48;;
14754;SDS011;7469;50.906;6.952;2023-01-26T07:43:55;28.52;;;14.40;;
14754;SDS011;7469;50.906;6.952;2023-01-26T07:46:23;31.98;;;13.88;;
14754;SDS011;7469;50.906;6.952;2023-01-26T07:48:52;29.15;;;14.15;;
14754;SDS011;7469;50.906;6.952;2023-01-26T07:51:20;34.25;;;14.52;;
14754;SDS011;7469;50.906;6.952;2023-01-26T07:53:48;34.85;;;14.98;;
14754;SDS011;7469;50.906;6.952;2023-01-26T07:56:16;27.70;;;13.38;;
14754;SDS011;7469;50.906;6.952;2023-01-26T07:58:47;28.75;;;14.18;;
14754;SDS011;7469;50.906;6.952;2023-01-26T08:01:17;32.50;;;14.68;;
14754;SDS011;7469;50.906;6.952;2023-01-26T08:03:48;33.22;;;14.13;;
14754;SDS011;7469;50.906;6.952;2023-01-26T08:06:18;27.45;;;13.43;;
14754;SDS011;7469;50.906;6.952;2023-01-26T08:08:46;33.08;;;14.77;;
14754;SDS011;7469;50.906;6.952;2023-01-26T08:11:18;31.33;;;14.32;;
14754;SDS011;7469;50.906;6.952;2023-01-26T08:13:48;31.17;;;14.43;;
14754;SDS011;7469;50.906;6.952;2023-01-26T08:16:16;37.85;;;14.88;;
14754;SDS011;7469;50.906;6.952;2023-01-26T08:18:45;34.97;;;15.18;;
14754;SDS011;7469;50.906;6.952;2023-01-26T08:21:14;27.95;;;14.38;;
14754;SDS011;7469;50.906;6.952;2023-01-26T08:23:48;34.53;;;14.80;;
14754;SDS011;7469;50.906;6.952;2023-01-26T08:26:16;31.02;;;14.38;;
14754;SDS011;7469;50.906;6.952;2023-01-26T08:28:45;41.53;;;15.90;;
14754;SDS011;7469;50.906;6.952;2023-01-26T08:31:15;34.72;;;15.32;;
14754;SDS011;7469;50.906;6.952;2023-01-26T08:33:46;40.10;;;15.93;;
14754;SDS011;7469;50.906;6.952;2023-01-26T08:36:16;33.17;;;13.87;;
14754;SDS011;7469;50.906;6.952;2023-01-26T08:38:49;34.83;;;14.40;;
14754;SDS011;7469;50.906;6.952;2023-01-26T08:41:17;31.37;;;14.10;;
14754;SDS011;7469;50.906;6.952;2023-01-26T08:43:45;32.20;;;14.15;;
14754;SDS011;7469;50.906;6.952;2023-01-26T08:46:13;33.53;;;15.17;;
14754;SDS011;7469;50.906;6.952;2023-01-26T08:48:41;36.57;;;15.13;;
14754;SDS011;7469;50.906;6.952;2023-01-26T08:51:09;38.73;;;15.27;;
14754;SDS011;7469;50.906;6.952;2023-01-26T08:53:37;37.80;;;14.87;;
14754;SDS011;7469;50.906;6.952;2023-01-26T08:56:08;31.20;;;14.82;;
14754;SDS011;7469;50.906;6.952;2023-01-26T08:58:37;32.93;;;14.73;;
14754;SDS011;7469;50.906;6.952;2023-01-26T09:01:06;32.97;;;15.47;;
14754;SDS011;7469;50.906;6.952;2023-01-26T09:03:37;29.77;;;14.80;;
14754;SDS011;7469;50.906;6.952;2023-01-26T09:06:05;32.17;;;15.17;;
14754;SDS011;7469;50.906;6.952;2023-01-26T09:08:35;27.90;;;13.37;;
14754;SDS011;7469;50.906;6.952;2023-01-26T09:11:04;31.90;;;13.00;;
14754;SDS011;7469;50.906;6.952;2023-01-26T09:13:33;30.13;;;14.53;;
14754;SDS011;7469;50.906;6.952;2023-01-26T09:16:02;26.83;;;13.03;;
14754;SDS011;7469;50.906;6.952;2023-01-26T09:18:31;28.52;;;14.18;;
14754;SDS011;7469;50.906;6.952;2023-01-26T09:21:03;29.17;;;14.53;;
14754;SDS011;7469;50.906;6.952;2023-01-26T09:23:32;29.10;;;14.70;;
14754;SDS011;7469;50.906;6.952;2023-01-26T09:26:01;31.65;;;14.50;;
14754;SDS011;7469;50.906;6.952;2023-01-26T09:28:31;29.97;;;14.63;;
14754;SDS011;7469;50.906;6.952;2023-01-26T09:31:01;31.30;;;14.53;;
14754;SDS011;7469;50.906;6.952;2023-01-26T09:33:30;30.20;;;14.37;;
14754;SDS011;7469;50.906;6.952;2023-01-26T09:36:03;34.50;;;15.33;;
14754;SDS011;7469;50.906;6.952;2023-01-26T09:38:32;29.43;;;14.77;;
14754;SDS011;7469;50.906;6.952;2023-01-26T09:41:01;27.80;;;13.80;;
14754;SDS011;7469;50.906;6.952;2023-01-26T09:43:36;29.63;;;14.20;;
14754;SDS011;7469;50.906;6.952;2023-01-26T09:46:11;30.10;;;14.30;;
14754;SDS011;7469;50.906;6.952;2023-01-26T09:48:50;27.63;;;13.93;;
14754;SDS011;7469;50.906;6.952;2023-01-26T09:51:28;26.77;;;13.83;;
14754;SDS011;7469;50.906;6.952;2023-01-26T09:54:00;31.77;;;15.37;;
14754;SDS011;7469;50.906;6.952;2023-01-26T09:56:35;34.10;;;15.10;;
14754;SDS011;7469;50.906;6.952;2023-01-26T09:59:06;33.53;;;14.80;;
14754;SDS011;7469;50.906;6.952;2023-01-26T10:01:44;33.77;;;15.83;;
14754;SDS011;7469;50.906;6.952;2023-01-26T10:04:21;41.17;;;16.30;;
14754;SDS011;7469;50.906;6.952;2023-01-26T10:06:58;31.20;;;14.60;;
14754;SDS011;7469;50.906;6.952;2023-01-26T10:09:28;41.77;;;16.43;;
14754;SDS011;7469;50.906;6.952;2023-01-26T10:12:01;34.87;;;16.17;;
14754;SDS011;7469;50.906;6.952;2023-01-26T10:14:33;40.10;;;17.13;;
14754;SDS011;7469;50.906;6.952;2023-01-26T10:17:06;32.20;;;14.20;;
14754;SDS011;7469;50.906;6.952;2023-01-26T10:19:41;35.63;;;17.33;;
14754;SDS011;7469;50.906;6.952;2023-01-26T10:22:13;31.77;;;15.57;;
14754;SDS011;7469;50.906;6.952;2023-01-26T10:24:46;37.90;;;16.30;;
14754;SDS011;7469;50.906;6.952;2023-01-26T10:27:16;40.00;;;17.70;;
14754;SDS011;7469;50.906;6.952;2023-01-26T10:29:46;59.97;;;19.27;;
14754;SDS011;7469;50.906;6.952;2023-01-26T10:32:15;54.87;;;19.23;;
14754;SDS011;7469;50.906;6.952;2023-01-26T10:34:44;42.93;;;17.33;;
14754;SDS011;7469;50.906;6.952;2023-01-26T10:37:18;45.07;;;18.10;;
14754;SDS011;7469;50.906;6.952;2023-01-26T10:39:57;41.03;;;16.80;;
14754;SDS011;7469;50.906;6.952;2023-01-26T10:42:28;45.77;;;17.00;;
14754;SDS011;7469;50.906;6.952;2023-01-26T10:44:58;45.87;;;19.03;;
14754;SDS011;7469;50.906;6.952;2023-01-26T10:47:28;44.83;;;17.87;;
14754;SDS011;7469;50.906;6.952;2023-01-26T10:50:18;47.53;;;17.93;;
14754;SDS011;7469;50.906;6.952;2023-01-26T10:52:55;35.97;;;16.43;;
14754;SDS011;7469;50.906;6.952;2023-01-26T10:55:24;39.73;;;17.23;;
14754;SDS011;7469;50.906;6.952;2023-01-26T10:57:52;41.87;;;17.10;;
14754;SDS011;7469;50.906;6.952;2023-01-26T11:00:26;40.10;;;17.47;;
14754;SDS011;7469;50.906;6.952;2023-01-26T11:02:58;40.73;;;16.77;;
14754;SDS011;7469;50.906;6.952;2023-01-26T11:05:31;36.63;;;17.07;;
14754;SDS011;7469;50.906;6.952;2023-01-26T11:08:00;39.23;;;16.77;;
14754;SDS011;7469;50.906;6.952;2023-01-26T11:10:29;39.97;;;16.87;;
14754;SDS011;7469;50.906;6.952;2023-01-26T11:13:06;38.83;;;17.40;;
14754;SDS011;7469;50.906;6.952;2023-01-26T11:15:40;40.97;;;17.40;;
14754;SDS011;7469;50.906;6.952;2023-01-26T11:18:16;45.23;;;18.17;;
14754;SDS011;7469;50.906;6.952;2023-01-26T11:20:56;41.97;;;18.10;;
14754;SDS011;7469;50.906;6.952;2023-01-26T11:23:38;44.93;;;18.73;;
14754;SDS011;7469;50.906;6.952;2023-01-26T11:29:33;48.50;;;20.50;;
14754;SDS011;7469;50.906;6.952;2023-01-26T11:32:20;51.90;;;20.87;;
14754;SDS011;7469;50.906;6.952;2023-01-26T11:34:54;55.73;;;21.77;;
14754;SDS011;7469;50.906;6.952;2023-01-26T11:37:32;45.63;;;19.97;;
14754;SDS011;7469;50.906;6.952;2023-01-26T11:40:10;52.10;;;20.57;;
14754;SDS011;7469;50.906;6.952;2023-01-26T11:43:00;47.90;;;20.03;;
14754;SDS011;7469;50.906;6.952;2023-01-26T11:45:56;52.73;;;20.90;;
14754;SDS011;7469;50.906;6.952;2023-01-26T11:48:35;47.60;;;20.77;;
14754;SDS011;7469;50.906;6.952;2023-01-26T11:51:13;56.80;;;21.17;;
14754;SDS011;7469;50.906;6.952;2023-01-26T11:53:54;54.17;;;21.57;;
14754;SDS011;7469;50.906;6.952;2023-01-26T11:56:36;49.13;;;20.57;;
14754;SDS011;7469;50.906;6.952;2023-01-26T11:59:20;45.57;;;19.90;;
14754;SDS011;7469;50.906;6.952;2023-01-26T12:01:52;45.27;;;19.60;;
14754;SDS011;7469;50.906;6.952;2023-01-26T12:04:26;48.00;;;19.70;;
14754;SDS011;7469;50.906;6.952;2023-01-26T12:06:59;51.50;;;18.83;;
14754;SDS011;7469;50.906;6.952;2023-01-26T12:09:33;46.53;;;18.43;;
14754;SDS011;7469;50.906;6.952;2023-01-26T12:12:05;45.20;;;18.13;;
14754;SDS011;7469;50.906;6.952;2023-01-26T12:14:40;38.63;;;17.40;;
14754;SDS011;7469;50.906;6.952;2023-01-26T12:17:28;40.43;;;16.73;;
14754;SDS011;7469;50.906;6.952;2023-01-26T12:20:04;39.30;;;17.03;;
14754;SDS011;7469;50.906;6.952;2023-01-26T12:22:46;42.90;;;18.30;;
14754;SDS011;7469;50.906;6.952;2023-01-26T12:25:22;38.87;;;16.73;;
14754;SDS011;7469;50.906;6.952;2023-01-26T12:27:58;45.93;;;18.87;;
14754;SDS011;7469;50.906;6.952;2023-01-26T12:30:40;43.90;;;19.07;;
14754;SDS011;7469;50.906;6.952;2023-01-26T12:33:15;48.50;;;19.50;;
14754;SDS011;7469;50.906;6.952;2023-01-26T12:35:48;49.43;;;20.70;;
14754;SDS011;7469;50.906;6.952;2023-01-26T12:38:27;45.70;;;18.10;;
14754;SDS011;7469;50.906;6.952;2023-01-26T12:41:08;44.87;;;20.50;;
14754;SDS011;7469;50.906;6.952;2023-01-26T12:43:44;49.27;;;21.00;;
14754;SDS011;7469;50.906;6.952;2023-01-26T12:46:21;42.93;;;19.37;;
14754;SDS011;7469;50.906;6.952;2023-01-26T12:48:54;40.57;;;17.83;;
14754;SDS011;7469;50.906;6.952;2023-01-26T12:51:29;38.03;;;17.67;;
14754;SDS011;7469;50.906;6.952;2023-01-26T12:54:02;39.23;;;18.43;;
14754;SDS011;7469;50.906;6.952;2023-01-26T12:56:35;42.20;;;17.13;;
14754;SDS011;7469;50.906;6.952;2023-01-26T12:59:12;39.33;;;16.27;;
14754;SDS011;7469;50.906;6.952;2023-01-26T13:02:09;33.83;;;15.83;;
14754;SDS011;7469;50.906;6.952;2023-01-26T13:04:46;40.70;;;15.83;;
14754;SDS011;7469;50.906;6.952;2023-01-26T13:07:26;30.63;;;15.47;;
14754;SDS011;7469;50.906;6.952;2023-01-26T13:12:51;37.17;;;15.70;;
14754;SDS011;7469;50.906;6.952;2023-01-26T13:15:21;37.87;;;16.60;;
14754;SDS011;7469;50.906;6.952;2023-01-26T13:17:51;35.87;;;15.90;;
14754;SDS011;7469;50.906;6.952;2023-01-26T13:20:28;34.33;;;15.70;;
14754;SDS011;7469;50.906;6.952;2023-01-26T13:29:26;35.33;;;14.50;;
14754;SDS011;7469;50.906;6.952;2023-01-26T13:31:57;27.93;;;14.37;;
14754;SDS011;7469;50.906;6.952;2023-01-26T13:34:28;28.87;;;13.50;;
14754;SDS011;7469;50.906;6.952;2023-01-26T13:37:03;28.43;;;13.20;;
14754;SDS011;7469;50.906;6.952;2023-01-26T13:39:37;27.17;;;12.87;;
14754;SDS011;7469;50.906;6.952;2023-01-26T13:42:15;25.40;;;12.17;;
14754;SDS011;7469;50.906;6.952;2023-01-26T13:44:48;24.17;;;12.03;;
14754;SDS011;7469;50.906;6.952;2023-01-26T13:47:21;29.90;;;13.63;;
14754;SDS011;7469;50.906;6.952;2023-01-26T13:49:54;28.97;;;13.27;;
14754;SDS011;7469;50.906;6.952;2023-01-26T13:52:23;25.77;;;12.80;;
14754;SDS011;7469;50.906;6.952;2023-01-26T13:54:53;25.40;;;12.57;;
14754;SDS011;7469;50.906;6.952;2023-01-26T13:57:25;27.33;;;12.67;;
14754;SDS011;7469;50.906;6.952;2023-01-26T13:59:54;23.77;;;11.13;;
14754;SDS011;7469;50.906;6.952;2023-01-26T14:02:25;24.33;;;11.53;;
14754;SDS011;7469;50.906;6.952;2023-01-26T14:04:56;21.03;;;10.90;;
14754;SDS011;7469;50.906;6.952;2023-01-26T14:07:26;18.33;;;9.50;;
14754;SDS011;7469;50.906;6.952;2023-01-26T14:09:58;24.67;;;10.53;;
14754;SDS011;7469;50.906;6.952;2023-01-26T14:12:30;19.07;;;10.63;;
14754;SDS011;7469;50.906;6.952;2023-01-26T14:15:02;23.07;;;10.33;;
14754;SDS011;7469;50.906;6.952;2023-01-26T14:17:34;23.07;;;11.10;;
14754;SDS011;7469;50.906;6.952;2023-01-26T14:20:17;19.10;;;10.63;;
14754;SDS011;7469;50.906;6.952;2023-01-26T14:25:47;23.93;;;10.27;;
14754;SDS011;7469;50.906;6.952;2023-01-26T14:28:26;21.40;;;10.43;;
14754;SDS011;7469;50.906;6.952;2023-01-26T14:30:57;22.90;;;10.47;;
14754;SDS011;7469;50.906;6.952;2023-01-26T14:33:30;16.60;;;9.40;;
14754;SDS011;7469;50.906;6.952;2023-01-26T14:35:58;18.37;;;9.53;;
14754;SDS011;7469;50.906;6.952;2023-01-26T14:38:28;14.00;;;8.73;;
14754;SDS011;7469;50.906;6.952;2023-01-26T14:40:58;15.93;;;9.10;;
14754;SDS011;7469;50.906;6.952;2023-01-26T14:43:29;12.90;;;9.07;;
14754;SDS011;7469;50.906;6.952;2023-01-26T14:45:58;11.70;;;8.47;;
14754;SDS011;7469;50.906;6.952;2023-01-26T14:48:30;13.60;;;7.53;;
14754;SDS011;7469;50.906;6.952;2023-01-26T14:51:01;14.70;;;7.97;;
14754;SDS011;7469;50.906;6.952;2023-01-26T14:53:33;10.90;;;6.80;;
14754;SDS011;7469;50.906;6.952;2023-01-26T14:56:01;8.97;;;6.20;;
14754;SDS011;7469;50.906;6.952;2023-01-26T14:58:30;13.43;;;6.63;;
14754;SDS011;7469;50.906;6.952;2023-01-26T15:01:00;8.17;;;5.70;;
14754;SDS011;7469;50.906;6.952;2023-01-26T15:03:31;9.23;;;5.97;;
14754;SDS011;7469;50.906;6.952;2023-01-26T15:06:03;6.77;;;5.10;;
14754;SDS011;7469;50.906;6.952;2023-01-26T15:08:51;9.87;;;5.93;;
14754;SDS011;7469;50.906;6.952;2023-01-26T15:11:26;9.63;;;5.20;;
14754;SDS011;7469;50.906;6.952;2023-01-26T15:14:30;8.13;;;5.20;;
14754;SDS011;7469;50.906;6.952;2023-01-26T15:17:00;7.80;;;5.43;;
14754;SDS011;7469;50.906;6.952;2023-01-26T15:19:37;8.63;;;5.13;;
14754;SDS011;7469;50.906;6.952;2023-01-26T15:22:17;9.20;;;5.27;;